Time;durP1;ratioP1;P1;durP2;ratioP2;P2;SDS_P1;SDS_P2;PMS_P1;PMS_P2;Temp;Humidity;BMP_temperature;BMP_pressure;BME280_temperature;BME280_humidity;BME280_pressure;Samples;Min_cycle;Max_cycle;Signal;HPM_P1;HPM_P2
2023/04/19 00:00:11;;;;;;;6.97;3.38;;;;;;;;;;10456280;28;20037;-56
2023/04/19 00:05:12;;;;;;;10.10;3.25;;;;;;;;;;10456408;28;20040;-63
2023/04/19 00:10:12;;;;;;;11.38;3.05;;;;;;;;;;10450495;28;20032;-59
2023/04/19 00:15:13;;;;;;;8.43;3.45;;;;;;;;;;10434290;28;20032;-59
2023/04/19 00:20:14;;;;;;;6.10;3.13;;;;;;;;;;10434120;28;20358;-68
2023/04/19 00:25:14;;;;;;;7.93;3.33;;;;;;;;;;10442530;28;20496;-63
2023/04/19 00:30:15;;;;;;;6.03;3.20;;;;;;;;;;10450651;28;20047;-62
2023/04/19 00:35:15;;;;;;;7.93;2.72;;;;;;;;;;10441764;28;20029;-65
2023/04/19 00:40:16;;;;;;;7.85;3.20;;;;;;;;;;10451138;28;20032;-59
2023/04/19 00:45:17;;;;;;;6.68;2.83;;;;;;;;;;10449457;28;20036;-58
2023/04/19 00:50:18;;;;;;;8.50;3.58;;;;;;;;;;10448045;28;20059;-72
2023/04/19 00:55:19;;;;;;;5.45;3.10;;;;;;;;;;10437222;28;20067;-58
2023/04/19 01:00:19;;;;;;;6.38;2.70;;;;;;;;;;10444816;28;20507;-71
2023/04/19 01:05:20;;;;;;;6.82;2.92;;;;;;;;;;10450380;28;20037;-66
2023/04/19 01:10:21;;;;;;;5.28;2.30;;;;;;;;;;10457865;28;20031;-72
2023/04/19 01:15:22;;;;;;;8.65;3.03;;;;;;;;;;10449464;28;20029;-73
2023/04/19 01:20:22;;;;;;;3.70;2.47;;;;;;;;;;10446357;28;20036;-73
2023/04/19 01:25:23;;;;;;;6.43;2.78;;;;;;;;;;10446384;28;20035;-73
2023/04/19 01:30:24;;;;;;;6.90;2.92;;;;;;;;;;10445498;28;20029;-72
2023/04/19 01:35:24;;;;;;;5.45;2.60;;;;;;;;;;10446346;28;20029;-72
2023/04/19 01:40:25;;;;;;;8.35;2.72;;;;;;;;;;10448215;28;20379;-72
2023/04/19 01:45:26;;;;;;;5.63;2.80;;;;;;;;;;10455052;28;20123;-73
2023/04/19 01:50:26;;;;;;;5.75;2.85;;;;;;;;;;10435688;28;20029;-72
2023/04/19 01:55:28;;;;;;;6.50;3.10;;;;;;;;;;10444601;28;20029;-74
2023/04/19 02:00:28;;;;;;;5.90;3.13;;;;;;;;;;10445831;28;20037;-73
2023/04/19 02:05:29;;;;;;;6.97;2.83;;;;;;;;;;10439285;28;20041;-66
2023/04/19 02:10:30;;;;;;;6.45;3.08;;;;;;;;;;10442628;28;20078;-72
2023/04/19 02:15:30;;;;;;;6.28;2.50;;;;;;;;;;10437642;28;20040;-73
2023/04/19 02:20:31;;;;;;;6.35;2.50;;;;;;;;;;10447095;28;20024;-72
2023/04/19 02:25:31;;;;;;;5.75;2.33;;;;;;;;;;10431776;28;20492;-72
2023/04/19 02:30:32;;;;;;;3.95;2.60;;;;;;;;;;10448003;28;20029;-72
2023/04/19 02:35:33;;;;;;;4.70;2.53;;;;;;;;;;10446067;28;20032;-71
2023/04/19 02:40:33;;;;;;;4.25;2.00;;;;;;;;;;10451752;28;20029;-74
2023/04/19 02:45:35;;;;;;;5.82;2.70;;;;;;;;;;10431733;28;20037;-65
2023/04/19 02:50:37;;;;;;;6.25;2.67;;;;;;;;;;10467030;28;20090;-70
2023/04/19 02:55:38;;;;;;;6.63;2.33;;;;;;;;;;10445488;28;20032;-72
2023/04/19 03:00:38;;;;;;;4.47;2.22;;;;;;;;;;10447796;28;20056;-74
2023/04/19 03:05:39;;;;;;;5.25;2.30;;;;;;;;;;10438788;28;20404;-58
2023/04/19 03:10:40;;;;;;;3.60;2.40;;;;;;;;;;10446764;28;20377;-65
2023/04/19 03:15:40;;;;;;;3.33;1.83;;;;;;;;;;10429000;28;20182;-59
2023/04/19 03:20:41;;;;;;;4.35;2.10;;;;;;;;;;10429741;28;20029;-66
2023/04/19 03:25:41;;;;;;;6.18;2.70;;;;;;;;;;10443360;28;20112;-59
2023/04/19 03:30:42;;;;;;;2.95;2.10;;;;;;;;;;10444073;28;20025;-71
2023/04/19 03:35:43;;;;;;;3.97;2.22;;;;;;;;;;10442353;28;20047;-60
2023/04/19 03:40:44;;;;;;;7.50;2.40;;;;;;;;;;10431231;28;20025;-59
2023/04/19 03:45:44;;;;;;;5.20;2.47;;;;;;;;;;10439183;28;20028;-59
2023/04/19 03:50:45;;;;;;;3.83;2.00;;;;;;;;;;10457446;28;20036;-59
2023/04/19 03:55:45;;;;;;;4.63;2.53;;;;;;;;;;10455521;28;20056;-59
2023/04/19 04:00:46;;;;;;;3.53;2.17;;;;;;;;;;10443466;28;20099;-74
2023/04/19 04:05:47;;;;;;;4.13;2.28;;;;;;;;;;10450558;28;20086;-73
2023/04/19 04:10:48;;;;;;;5.30;2.28;;;;;;;;;;10451680;28;20032;-73
2023/04/19 04:15:48;;;;;;;4.22;2.50;;;;;;;;;;10440035;28;20033;-75
2023/04/19 04:20:49;;;;;;;3.50;1.63;;;;;;;;;;10447251;28;20037;-75
2023/04/19 04:25:59;;;;;;;5.45;2.35;;;;;;;;;;10436656;28;20037;-73
2023/04/19 04:31:00;;;;;;;2.40;1.90;;;;;;;;;;10446885;28;20033;-73
2023/04/19 04:36:01;;;;;;;4.20;2.20;;;;;;;;;;10447523;28;20036;-75
2023/04/19 04:41:02;;;;;;;4.97;2.78;;;;;;;;;;10437113;28;20021;-75
2023/04/19 04:46:03;;;;;;;3.05;2.13;;;;;;;;;;10449222;28;20040;-74
2023/04/19 04:51:03;;;;;;;3.65;2.10;;;;;;;;;;10455721;28;20404;-74
2023/04/19 04:56:04;;;;;;;3.72;1.92;;;;;;;;;;10449297;28;20427;-74
2023/04/19 05:01:05;;;;;;;3.97;2.30;;;;;;;;;;10458702;28;20642;-67
2023/04/19 05:06:06;;;;;;;2.65;1.90;;;;;;;;;;10441033;28;20024;-73
2023/04/19 05:11:07;;;;;;;4.68;2.53;;;;;;;;;;10452045;28;20358;-69
2023/04/19 05:16:08;;;;;;;2.08;1.88;;;;;;;;;;10448283;28;20025;-72
2023/04/19 05:21:09;;;;;;;3.42;1.88;;;;;;;;;;10448087;28;20033;-69
2023/04/19 05:26:11;;;;;;;4.38;1.75;;;;;;;;;;10450695;28;20040;-60
2023/04/19 05:31:12;;;;;;;11.23;2.95;;;;;;;;;;10442077;28;20452;-59
2023/04/19 05:36:13;;;;;;;9.00;2.33;;;;;;;;;;10446886;28;20017;-59
2023/04/19 05:41:14;;;;;;;6.85;2.00;;;;;;;;;;10447930;28;20048;-61
2023/04/19 05:46:15;;;;;;;4.28;1.75;;;;;;;;;;10437207;28;20024;-67
2023/04/19 05:51:17;;;;;;;23.02;2.85;;;;;;;;;;10447894;28;20035;-59
2023/04/19 05:56:18;;;;;;;13.57;3.00;;;;;;;;;;10421093;28;20029;-64
2023/04/19 06:01:18;;;;;;;12.60;3.35;;;;;;;;;;10453862;28;20036;-58
2023/04/19 06:06:21;;;;;;;17.70;3.08;;;;;;;;;;10441301;28;20036;-58
2023/04/19 06:11:22;;;;;;;11.02;3.40;;;;;;;;;;10433150;28;20031;-58
2023/04/19 06:16:23;;;;;;;7.22;3.20;;;;;;;;;;10445324;28;20033;-62
2023/04/19 06:21:23;;;;;;;12.77;3.15;;;;;;;;;;10442991;28;20036;-58
2023/04/19 06:26:24;;;;;;;8.02;3.00;;;;;;;;;;10437042;28;20021;-58
2023/04/19 06:31:24;;;;;;;9.50;3.40;;;;;;;;;;10448263;28;20137;-58
2023/04/19 06:36:25;;;;;;;14.63;3.88;;;;;;;;;;10452712;28;20489;-57
2023/04/19 06:41:26;;;;;;;8.23;3.17;;;;;;;;;;10449987;28;20029;-57
2023/04/19 06:46:27;;;;;;;9.40;3.42;;;;;;;;;;10445066;28;20040;-58
2023/04/19 06:51:28;;;;;;;10.60;3.15;;;;;;;;;;10447698;28;20121;-58
2023/04/19 06:56:46;;;;;;;9.70;3.47;;;;;;;;;;10460082;28;20144;-59
2023/04/19 07:01:47;;;;;;;;;;;;;;;;;;10444705;28;20049;-59
2023/04/19 07:06:49;;;;;;;14.63;3.15;;;;;;;;;;10461516;28;20536;-58
2023/04/19 07:11:50;;;;;;;11.60;2.95;;;;;;;;;;10452164;28;20020;-59
2023/04/19 07:16:52;;;;;;;9.27;2.85;;;;;;;;;;10447276;28;20024;-63
2023/04/19 07:21:53;;;;;;;7.25;3.03;;;;;;;;;;10454367;28;20043;-67
2023/04/19 07:26:53;;;;;;;13.57;3.38;;;;;;;;;;10443754;28;20370;-65
2023/04/19 07:31:54;;;;;;;11.48;2.80;;;;;;;;;;10451436;28;20029;-64
2023/04/19 07:36:55;;;;;;;12.25;3.20;;;;;;;;;;10457790;28;20036;-66
2023/04/19 07:41:55;;;;;;;7.80;3.00;;;;;;;;;;10460044;28;20504;-64
2023/04/19 07:46:56;;;;;;;6.78;3.05;;;;;;;;;;10454081;28;20025;-64
2023/04/19 07:51:57;;;;;;;8.07;3.00;;;;;;;;;;10451719;28;20028;-60
2023/04/19 07:56:57;;;;;;;7.15;2.50;;;;;;;;;;10451536;28;20051;-58
2023/04/19 08:01:58;;;;;;;9.77;2.80;;;;;;;;;;10437308;28;20041;-61
2023/04/19 08:06:59;;;;;;;13.30;2.80;;;;;;;;;;10448805;28;20025;-65
2023/04/19 08:12:00;;;;;;;6.30;2.60;;;;;;;;;;10460164;28;20040;-55
2023/04/19 08:17:00;;;;;;;5.88;2.65;;;;;;;;;;10438580;28;20094;-67
2023/04/19 08:22:03;;;;;;;7.45;2.92;;;;;;;;;;10451654;28;20079;-59
2023/04/19 08:27:03;;;;;;;7.18;2.95;;;;;;;;;;10455248;28;20479;-65
2023/04/19 08:32:05;;;;;;;4.85;2.85;;;;;;;;;;10456826;28;20032;-64
2023/04/19 08:37:06;;;;;;;4.75;2.80;;;;;;;;;;10439949;28;20137;-60
2023/04/19 08:42:09;;;;;;;6.00;2.50;;;;;;;;;;10442973;28;20509;-64
2023/04/19 08:47:10;;;;;;;3.25;2.38;;;;;;;;;;10437815;28;20361;-57
2023/04/19 08:52:12;;;;;;;5.18;2.75;;;;;;;;;;10451097;28;20111;-58
2023/04/19 08:57:13;;;;;;;5.78;2.30;;;;;;;;;;10439101;28;20021;-62
2023/04/19 09:02:14;;;;;;;4.30;2.45;;;;;;;;;;10442978;28;20063;-60
2023/04/19 09:07:26;;;;;;;8.35;2.42;;;;;;;;;;10446922;28;20512;-60
2023/04/19 09:12:27;;;;;;;5.10;2.65;;;;;;;;;;10450493;28;20108;-64
2023/04/19 09:17:28;;;;;;;3.40;2.50;;;;;;;;;;10447875;28;20021;-59
2023/04/19 09:22:29;;;;;;;5.15;2.90;;;;;;;;;;10451933;28;20020;-63
2023/04/19 09:27:32;;;;;;;3.80;2.17;;;;;;;;;;10448214;28;20380;-59
2023/04/19 09:32:47;;;;;;;2.80;2.20;;;;;;;;;;10444883;28;20477;-62
2023/04/19 09:38:00;;;;;;;2.85;2.08;;;;;;;;;;10439914;28;20095;-67
2023/04/19 09:43:02;;;;;;;6.88;2.17;;;;;;;;;;10448858;28;20078;-56
2023/04/19 09:48:08;;;;;;;4.05;2.50;;;;;;;;;;10443378;28;20477;-61
2023/04/19 09:53:10;;;;;;;2.45;2.10;;;;;;;;;;10451128;28;20029;-57
2023/04/19 09:58:10;;;;;;;3.72;2.10;;;;;;;;;;10443597;28;20095;-59
2023/04/19 10:03:11;;;;;;;4.30;2.53;;;;;;;;;;10448461;28;20098;-57
2023/04/19 10:08:13;;;;;;;3.45;2.58;;;;;;;;;;10442499;28;20124;-61
2023/04/19 10:13:22;;;;;;;3.13;2.10;;;;;;;;;;10451066;28;21307;-55
2023/04/19 10:18:23;;;;;;;3.83;2.45;;;;;;;;;;10448392;28;20098;-58
2023/04/19 10:23:24;;;;;;;2.72;2.30;;;;;;;;;;10445078;28;20186;-57
2023/04/19 10:28:27;;;;;;;6.93;2.60;;;;;;;;;;10439206;28;20383;-58
2023/04/19 10:33:35;;;;;;;2.50;2.13;;;;;;;;;;10446273;28;20145;-57
2023/04/19 10:38:48;;;;;;;6.50;2.10;;;;;;;;;;10440740;28;20028;-58
2023/04/19 10:43:54;;;;;;;2.75;2.05;;;;;;;;;;10436122;28;20040;-61
2023/04/19 10:49:00;;;;;;;2.83;2.30;;;;;;;;;;10444548;28;20028;-58
2023/04/19 10:54:03;;;;;;;4.82;1.85;;;;;;;;;;10445062;28;20037;-58
2023/04/19 10:59:10;;;;;;;3.33;2.30;;;;;;;;;;10440013;28;20078;-61
2023/04/19 11:04:20;;;;;;;5.53;2.35;;;;;;;;;;10446891;28;20128;-62
2023/04/19 11:09:35;;;;;;;5.50;2.50;;;;;;;;;;10449137;28;20026;-57
2023/04/19 11:14:47;;;;;;;4.53;2.35;;;;;;;;;;10430590;28;20071;-58
2023/04/19 11:20:10;;;;;;;5.50;2.30;;;;;;;;;;10446649;28;20095;-62
2023/04/19 11:25:19;;;;;;;4.68;2.00;;;;;;;;;;10434524;28;20048;-58
2023/04/19 11:30:30;;;;;;;2.75;2.30;;;;;;;;;;10441965;28;20025;-57
2023/04/19 11:35:30;;;;;;;2.45;2.20;;;;;;;;;;10436848;28;20473;-66
2023/04/19 11:40:31;;;;;;;3.42;2.10;;;;;;;;;;10434618;28;20055;-64
2023/04/19 11:45:35;;;;;;;3.63;1.98;;;;;;;;;;10429227;28;20416;-64
2023/04/19 11:50:42;;;;;;;2.25;2.05;;;;;;;;;;10437089;28;20082;-66
2023/04/19 11:55:50;;;;;;;3.35;2.08;;;;;;;;;;10432831;28;20040;-65
2023/04/19 12:00:51;;;;;;;5.07;2.13;;;;;;;;;;10434946;28;20439;-66
2023/04/19 12:05:57;;;;;;;4.47;2.50;;;;;;;;;;10445980;28;20063;-59
2023/04/19 12:10:58;;;;;;;4.25;2.20;;;;;;;;;;10436776;28;20032;-58
2023/04/19 12:16:00;;;;;;;3.85;2.30;;;;;;;;;;10446633;28;20036;-60
2023/04/19 12:21:02;;;;;;;5.00;2.42;;;;;;;;;;10444204;28;20021;-62
2023/04/19 12:26:06;;;;;;;8.85;2.40;;;;;;;;;;10453556;28;20036;-61
2023/04/19 12:31:07;;;;;;;9.30;2.63;;;;;;;;;;10446887;28;20032;-63
2023/04/19 12:36:07;;;;;;;4.25;2.35;;;;;;;;;;10434388;28;20025;-58
2023/04/19 12:41:08;;;;;;;4.13;2.63;;;;;;;;;;10448554;28;20037;-65
2023/04/19 12:46:09;;;;;;;6.35;2.30;;;;;;;;;;10445231;28;20067;-58
2023/04/19 12:51:09;;;;;;;5.50;2.40;;;;;;;;;;10434454;28;20076;-59
2023/04/19 12:56:11;;;;;;;7.97;2.90;;;;;;;;;;10438959;28;20496;-59
2023/04/19 13:01:11;;;;;;;9.98;2.20;;;;;;;;;;10443831;28;20045;-61
2023/04/19 13:06:14;;;;;;;4.40;2.60;;;;;;;;;;10457009;28;20480;-58
2023/04/19 13:11:16;;;;;;;4.25;2.67;;;;;;;;;;10461124;28;20051;-63
2023/04/19 13:16:17;;;;;;;11.88;2.90;;;;;;;;;;10434419;28;20079;-67
2023/04/19 13:21:18;;;;;;;6.55;2.00;;;;;;;;;;10452043;28;20025;-57
2023/04/19 13:26:18;;;;;;;4.85;2.20;;;;;;;;;;10445754;28;20041;-57
2023/04/19 13:31:19;;;;;;;5.78;2.33;;;;;;;;;;10461687;28;20429;-57
2023/04/19 13:36:20;;;;;;;6.00;2.30;;;;;;;;;;10443358;28;20400;-57
2023/04/19 13:41:20;;;;;;;6.25;3.13;;;;;;;;;;10432187;28;20025;-58
2023/04/19 13:46:21;;;;;;;8.15;2.60;;;;;;;;;;10441969;28;20032;-56
2023/04/19 13:51:21;;;;;;;12.52;3.88;;;;;;;;;;10454608;28;20021;-57
2023/04/19 13:56:22;;;;;;;23.80;6.88;;;;;;;;;;10454640;28;20038;-57
2023/04/19 14:01:23;;;;;;;26.27;12.27;;;;;;;;;;10449865;28;20481;-58
2023/04/19 14:06:23;;;;;;;25.10;11.77;;;;;;;;;;10460319;28;20039;-58
2023/04/19 14:11:24;;;;;;;30.60;13.40;;;;;;;;;;10448759;28;20054;-61
2023/04/19 14:16:25;;;;;;;27.27;12.23;;;;;;;;;;10447999;28;20539;-59
2023/04/19 14:21:27;;;;;;;27.63;12.30;;;;;;;;;;10454790;28;20079;-63
2023/04/19 14:26:27;;;;;;;25.10;11.65;;;;;;;;;;10449161;28;20024;-61
2023/04/19 14:31:28;;;;;;;23.17;11.98;;;;;;;;;;10453184;28;20029;-62
2023/04/19 14:36:29;;;;;;;26.55;12.45;;;;;;;;;;10447299;28;20041;-58
2023/04/19 14:41:29;;;;;;;26.17;14.65;;;;;;;;;;10451807;28;20087;-58
2023/04/19 14:46:30;;;;;;;37.47;21.13;;;;;;;;;;10448173;28;20089;-66
2023/04/19 14:51:31;;;;;;;66.10;32.15;;;;;;;;;;10458310;22;20498;-52
2023/04/19 14:56:32;;;;;;;113.43;50.85;;;;;;;;;;10402537;28;20030;-53
2023/04/19 15:01:33;;;;;;;148.13;66.72;;;;;;;;;;10404113;28;20025;-57
2023/04/19 15:06:34;;;;;;;179.82;77.57;;;;;;;;;;10399176;28;20021;-60
2023/04/19 15:11:36;;;;;;;175.32;77.60;;;;;;;;;;10401920;28;20049;-50
2023/04/19 15:16:36;;;;;;;166.40;70.22;;;;;;;;;;10404088;28;20029;-56
2023/04/19 15:21:37;;;;;;;160.82;67.60;;;;;;;;;;10404930;28;20382;-51
2023/04/19 15:26:38;;;;;;;144.45;64.57;;;;;;;;;;10400494;28;20025;-54
2023/04/19 15:31:39;;;;;;;138.00;61.47;;;;;;;;;;10396252;28;20497;-63
2023/04/19 15:36:39;;;;;;;137.15;56.50;;;;;;;;;;10411164;28;20041;-52
2023/04/19 15:41:40;;;;;;;122.82;52.92;;;;;;;;;;10398834;28;20036;-55
2023/04/19 15:46:40;;;;;;;118.35;51.38;;;;;;;;;;10398492;28;20033;-62
2023/04/19 15:51:41;;;;;;;120.30;48.08;;;;;;;;;;10388997;28;20044;-53
2023/04/19 15:56:42;;;;;;;112.40;47.08;;;;;;;;;;10384279;28;20045;-52
2023/04/19 16:01:42;;;;;;;112.63;45.45;;;;;;;;;;10399094;28;20044;-63
2023/04/19 16:06:43;;;;;;;107.63;42.83;;;;;;;;;;10412647;28;20018;-51
2023/04/19 16:11:44;;;;;;;102.95;40.25;;;;;;;;;;10410075;28;20079;-51
2023/04/19 16:16:44;;;;;;;100.20;38.95;;;;;;;;;;10403591;28;20033;-52
2023/04/19 16:21:45;;;;;;;91.18;37.90;;;;;;;;;;10399695;28;20168;-50
2023/04/19 16:26:45;;;;;;;89.95;37.83;;;;;;;;;;10397900;28;20038;-51
2023/04/19 16:31:46;;;;;;;86.82;35.60;;;;;;;;;;10395563;28;20080;-64
2023/04/19 16:36:46;;;;;;;84.72;35.10;;;;;;;;;;10395289;28;20111;-48
2023/04/19 16:41:47;;;;;;;81.88;33.03;;;;;;;;;;10395164;28;20040;-51
2023/04/19 16:46:47;;;;;;;88.38;34.58;;;;;;;;;;10405799;28;20037;-56
2023/04/19 16:51:48;;;;;;;82.32;32.30;;;;;;;;;;10410504;28;20042;-52
2023/04/19 16:56:49;;;;;;;79.22;32.42;;;;;;;;;;10399701;28;20021;-50
2023/04/19 17:01:51;;;;;;;78.97;32.08;;;;;;;;;;10402085;28;20036;-55
2023/04/19 17:06:54;;;;;;;81.22;31.58;;;;;;;;;;10391182;28;20370;-51
2023/04/19 17:11:56;;;;;;;80.57;30.58;;;;;;;;;;10392489;28;20029;-63
2023/04/19 17:16:56;;;;;;;79.47;29.88;;;;;;;;;;10390594;28;20080;-51
2023/04/19 17:22:03;;;;;;;76.10;30.38;;;;;;;;;;10404940;28;20095;-51
2023/04/19 17:27:04;;;;;;;77.97;30.42;;;;;;;;;;10403419;28;20044;-54
2023/04/19 17:32:06;;;;;;;67.15;27.50;;;;;;;;;;10403202;28;20033;-52
2023/04/19 17:37:07;;;;;;;63.50;27.48;;;;;;;;;;10398279;28;20033;-51
2023/04/19 17:42:07;;;;;;;69.85;27.30;;;;;;;;;;10398248;28;20476;-63
2023/04/19 17:47:08;;;;;;;64.63;26.27;;;;;;;;;;10410254;28;20080;-52
2023/04/19 17:52:08;;;;;;;57.05;24.13;;;;;;;;;;10398667;28;20056;-52
2023/04/19 17:57:09;;;;;;;65.63;25.70;;;;;;;;;;10377736;28;20180;-47
2023/04/19 18:02:09;;;;;;;55.22;23.63;;;;;;;;;;10405887;28;20076;-51
2023/04/19 18:07:10;;;;;;;55.53;23.55;;;;;;;;;;10404019;28;20033;-62
2023/04/19 18:12:11;;;;;;;60.88;22.75;;;;;;;;;;10398166;28;20044;-58
2023/04/19 18:17:11;;;;;;;48.65;22.10;;;;;;;;;;10394304;28;20373;-52
2023/04/19 18:22:12;;;;;;;61.22;23.17;;;;;;;;;;10404865;28;20085;-50
2023/04/19 18:27:12;;;;;;;52.70;22.88;;;;;;;;;;10395267;28;20032;-52
2023/04/19 18:32:13;;;;;;;48.47;21.83;;;;;;;;;;10401476;28;20037;-52
2023/04/19 18:37:15;;;;;;;57.35;22.35;;;;;;;;;;10400813;28;20025;-59
2023/04/19 18:42:16;;;;;;;52.00;22.33;;;;;;;;;;10402568;28;20083;-54
2023/04/19 18:47:16;;;;;;;47.10;20.23;;;;;;;;;;10401544;28;20779;-55
2023/04/19 18:52:18;;;;;;;47.67;21.88;;;;;;;;;;10403636;28;20084;-52
2023/04/19 18:57:19;;;;;;;48.28;21.15;;;;;;;;;;10411967;28;20053;-62
2023/04/19 19:02:19;;;;;;;53.60;21.55;;;;;;;;;;10404596;28;20029;-52
2023/04/19 19:07:20;;;;;;;44.00;18.75;;;;;;;;;;10401245;28;20076;-48
2023/04/19 19:12:21;;;;;;;48.33;20.40;;;;;;;;;;10398100;28;20370;-51
2023/04/19 19:17:23;;;;;;;42.97;20.10;;;;;;;;;;10389653;28;20108;-52
2023/04/19 19:22:23;;;;;;;40.22;19.52;;;;;;;;;;10393822;28;20393;-50
2023/04/19 19:27:24;;;;;;;39.65;18.75;;;;;;;;;;10401533;28;20029;-63
2023/04/19 19:32:24;;;;;;;43.50;18.80;;;;;;;;;;10405224;28;20037;-52
2023/04/19 19:37:25;;;;;;;42.20;18.08;;;;;;;;;;10412628;28;20659;-59
2023/04/19 19:42:26;;;;;;;56.67;19.75;;;;;;;;;;10418412;28;20099;-61
2023/04/19 19:47:29;;;;;;;41.63;18.30;;;;;;;;;;10408866;28;20040;-60
2023/04/19 19:52:30;;;;;;;41.33;17.88;;;;;;;;;;10402279;28;20057;-51
2023/04/19 19:57:31;;;;;;;48.78;19.02;;;;;;;;;;10412031;28;20108;-51
2023/04/19 20:02:32;;;;;;;46.13;18.40;;;;;;;;;;10398191;28;20029;-54
2023/04/19 20:07:40;;;;;;;39.28;18.00;;;;;;;;;;10411213;28;20033;-52
2023/04/19 20:12:42;;;;;;;;;;;;;;;;;;10404195;28;20172;-53
2023/04/19 20:17:43;;;;;;;38.25;16.98;;;;;;;;;;10399773;28;19917;-64
2023/04/19 20:22:44;;;;;;;45.75;18.35;;;;;;;;;;10390352;28;20056;-52
2023/04/19 20:27:44;;;;;;;24.63;12.00;;;;;;;;;;10340594;28;20512;-52
2023/04/19 20:32:45;;;;;;;9.25;5.72;;;;;;;;;;10320509;28;20050;-56
2023/04/19 20:37:46;;;;;;;7.20;5.05;;;;;;;;;;10259642;28;263191;-55
2023/04/19 20:42:46;;;;;;;8.13;3.75;;;;;;;;;;10325235;28;20057;-50
2023/04/19 20:47:47;;;;;;;7.72;3.92;;;;;;;;;;10323179;28;20026;-66
2023/04/19 20:52:48;;;;;;;8.45;3.70;;;;;;;;;;10321009;28;20517;-66
2023/04/19 20:57:48;;;;;;;8.05;3.85;;;;;;;;;;10312306;28;20498;-53
2023/04/19 21:02:49;;;;;;;6.47;4.00;;;;;;;;;;10318405;28;20057;-57
2023/04/19 21:07:50;;;;;;;5.45;3.75;;;;;;;;;;10323200;28;20106;-62
2023/04/19 21:12:51;;;;;;;6.50;4.13;;;;;;;;;;10326512;28;20031;-50
2023/04/19 21:17:52;;;;;;;6.78;5.03;;;;;;;;;;10320902;28;20023;-49
2023/04/19 21:22:52;;;;;;;9.75;5.63;;;;;;;;;;10324912;28;20030;-57
2023/04/19 21:27:53;;;;;;;6.80;4.95;;;;;;;;;;10315864;28;20033;-52
2023/04/19 21:32:53;;;;;;;10.50;5.22;;;;;;;;;;10318124;28;20038;-55
2023/04/19 21:37:54;;;;;;;9.02;4.50;;;;;;;;;;10321276;28;20387;-52
2023/04/19 21:42:55;;;;;;;6.28;4.97;;;;;;;;;;10318431;28;20031;-55
2023/04/19 21:47:56;;;;;;;8.27;4.10;;;;;;;;;;10321307;28;20023;-61
2023/04/19 21:52:56;;;;;;;9.23;4.40;;;;;;;;;;10320306;28;20049;-63
2023/04/19 21:57:58;;;;;;;13.80;4.18;;;;;;;;;;10316093;28;20155;-61
2023/04/19 22:03:05;;;;;;;11.50;4.13;;;;;;;;;;10319920;28;20088;-59
2023/04/19 22:08:07;;;;;;;7.43;3.93;;;;;;;;;;10317813;28;20494;-60
2023/04/19 22:13:07;;;;;;;5.40;3.65;;;;;;;;;;10320009;28;20026;-58
2023/04/19 22:18:10;;;;;;;5.70;3.40;;;;;;;;;;10319739;28;20029;-61
2023/04/19 22:23:11;;;;;;;6.45;3.08;;;;;;;;;;10319175;28;20031;-62
2023/04/19 22:28:12;;;;;;;12.20;3.63;;;;;;;;;;10322438;28;20030;-63
2023/04/19 22:33:13;;;;;;;5.80;3.30;;;;;;;;;;10314106;28;20465;-63
2023/04/19 22:38:14;;;;;;;3.72;2.95;;;;;;;;;;10318304;28;20576;-62
2023/04/19 22:43:15;;;;;;;4.68;3.03;;;;;;;;;;10314448;28;20038;-61
2023/04/19 22:48:16;;;;;;;4.93;3.10;;;;;;;;;;10311720;28;20038;-60
2023/04/19 22:53:18;;;;;;;4.60;3.20;;;;;;;;;;10316214;28;20125;-54
2023/04/19 22:58:19;;;;;;;4.78;2.80;;;;;;;;;;10309196;28;20027;-62
2023/04/19 23:03:20;;;;;;;5.90;3.05;;;;;;;;;;10318949;28;20030;-52
2023/04/19 23:08:22;;;;;;;7.22;2.95;;;;;;;;;;10312121;28;20026;-62
2023/04/19 23:13:22;;;;;;;3.65;2.83;;;;;;;;;;10319586;28;20113;-61
2023/04/19 23:18:23;;;;;;;5.03;2.97;;;;;;;;;;10314902;28;20034;-63
2023/04/19 23:23:23;;;;;;;4.47;3.00;;;;;;;;;;10315644;28;20113;-62
2023/04/19 23:28:24;;;;;;;3.88;2.50;;;;;;;;;;10314808;28;20041;-53
2023/04/19 23:33:25;;;;;;;2.97;2.50;;;;;;;;;;10323432;28;20022;-55
2023/04/19 23:38:25;;;;;;;3.90;2.42;;;;;;;;;;10318977;28;20446;-54
2023/04/19 23:43:26;;;;;;;3.45;2.50;;;;;;;;;;10322372;28;20065;-52
2023/04/19 23:48:26;;;;;;;2.33;2.13;;;;;;;;;;10324482;28;20197;-54
2023/04/19 23:53:27;;;;;;;2.65;2.45;;;;;;;;;;10322512;28;20054;-53
2023/04/19 23:58:27;;;;;;;6.95;2.63;;;;;;;;;;10323748;28;20030;-54
